Aeroporto :
LOGIN :

Iscrizione | Disclaimer

   EN    FR    IT 

 










Sommario :    VFR   VFR Marginale   IFR   IFR Intensivo   IFR Molto Intensivo
Visibilità : 
Base nubi : 
>= 8 km
>= 3000ft
5 / 8 km
1000 / 3000 ft
1500m / 5 km
500 / 1000 ft
800 / 1500m
200 / 500 ft
< 800m
< 200 ft
Simboli :   Temporali  Nebbia  Neve Forte  Precipitazioni Forti  Vento > 20 kt
SIGMETs :   Varie  Temporali  Ghiacco  Turbolenza  Onda orograficha  Ceneri Vulcaniche







- Altitudine del aeroporto : 2945 ft
- Codice IATA : RGS


LEBG - Burgos

ULTIMO METAR :
  • 181900Z AUTO 05011KT 9999 OVC025/// 17/12 Q1027

METARs OBSOLETI :
  • 181830Z AUTO 06015KT 030V100 9999 OVC026/// 17/12 Q1026
  • 181800Z 05014KT 9999 BKN027 18/12 Q1026
  • 181730Z 04015KT 9999 SCT030 19/12 Q1026
  • 181700Z 05014KT 020V080 9999 FEW032 20/13 Q1026
  • 181630Z 04016KT 9999 FEW028 20/13 Q1026

TAF TAF LEBG
Valido dal 18 a 18 ore il 19 a 03 ore UTC


181700Z 1818/1903 05013KT 9999 FEW028
TEMPO 1821/1903 BKN008
Nessun NOTAM noto per questo aeroporto.



MetMap, La meteo Aeronautica in un colpo d'occhio ! - Copyright ORBIFLY Dicembre 2007 - Disclaimer

ORBIFLY MET'MAP TEAM :

Programmazione e sviluppo : Alexandra Zaïnal
Concezione e sviluppo : Baudouin d'Aumeries
Co-Programmazione e sviluppo : Marc-Olivier Méhu
Supporto tecnico e logistico : Manuel Goepfert
Aiuto per la traduzione : Arnaldo La Scala

Contatto : metmap@orbifly.com




FONTI E CREDITI :

   NOAA